Time;durP1;ratioP1;P1;durP2;ratioP2;P2;SDS_P1;SDS_P2;PMS_P1;PMS_P2;Temp;Humidity;BMP_temperature;BMP_pressure;BME280_temperature;BME280_humidity;BME280_pressure;Samples;Min_cycle;Max_cycle;Signal;HPM_P1;HPM_P2
2022/07/29 00:02:07;;;;;;;1.07;0.97;;;25.40;37.40;;;;;;5070496;28;20548;-78
2022/07/29 00:04:36;;;;;;;1.00;1.00;;;25.40;37.30;;;;;;5077469;28;20508;-78
2022/07/29 00:07:06;;;;;;;2.20;0.90;;;25.30;37.20;;;;;;5076323;28;20469;-77
2022/07/29 00:09:34;;;;;;;0.80;0.80;;;25.40;37.20;;;;;;5076721;28;20444;-77
2022/07/29 00:12:18;;;;;;;1.07;0.97;;;25.30;37.20;;;;;;5085289;28;20452;-78
2022/07/29 00:14:52;;;;;;;1.13;0.90;;;25.40;37.20;;;;;;5077847;28;20443;-78
2022/07/29 00:17:20;;;;;;;1.00;1.00;;;25.30;37.10;;;;;;5079490;28;20465;-78
2022/07/29 00:19:48;;;;;;;1.37;1.00;;;25.30;37.10;;;;;;5080958;28;20494;-78
2022/07/29 00:22:17;;;;;;;1.03;0.93;;;25.30;37.10;;;;;;5080490;28;20491;-78
2022/07/29 00:24:45;;;;;;;0.80;0.80;;;25.30;37.10;;;;;;5080093;28;20462;-78
2022/07/29 00:27:13;;;;;;;0.80;0.80;;;25.30;37.10;;;;;;5079169;28;20465;-78
2022/07/29 00:29:41;;;;;;;1.10;0.90;;;25.30;37.10;;;;;;5079997;28;20427;-78
2022/07/29 00:32:09;;;;;;;0.97;0.97;;;25.30;37.00;;;;;;5079647;28;20480;-78
2022/07/29 00:37:23;;;;;;;0.90;0.90;;;25.30;36.90;;;;;;5080026;28;20492;-79
2022/07/29 00:39:51;;;;;;;1.00;1.00;;;25.20;37.00;;;;;;5080759;28;20887;-78
2022/07/29 00:42:19;;;;;;;1.20;0.83;;;25.20;37.00;;;;;;5079820;28;20430;-78
2022/07/29 00:44:47;;;;;;;1.30;1.00;;;25.20;36.90;;;;;;5080324;28;20481;-78
2022/07/29 00:47:15;;;;;;;1.07;1.07;;;25.20;36.90;;;;;;5079381;28;20455;-78
2022/07/29 00:49:43;;;;;;;0.87;0.87;;;25.20;36.90;;;;;;5080139;28;20430;-79
2022/07/29 00:52:11;;;;;;;0.90;0.90;;;25.20;36.90;;;;;;5078783;28;20455;-78
2022/07/29 00:54:45;;;;;;;1.07;0.97;;;25.20;36.90;;;;;;5079899;28;20469;-78
2022/07/29 00:57:13;;;;;;;0.80;0.80;;;25.20;36.90;;;;;;5079304;28;20505;-79
2022/07/29 00:59:41;;;;;;;0.80;0.80;;;25.20;37.00;;;;;;5079716;28;20430;-78
2022/07/29 01:02:09;;;;;;;0.80;0.80;;;25.20;36.90;;;;;;5078410;28;20465;-79
2022/07/29 01:04:37;;;;;;;1.00;1.00;;;25.20;36.90;;;;;;5076637;28;20490;-78
2022/07/29 01:07:04;;;;;;;0.80;0.80;;;25.20;37.00;;;;;;5075483;28;20553;-78
2022/07/29 01:09:32;;;;;;;0.90;0.90;;;25.10;36.90;;;;;;5075438;28;20472;-78
2022/07/29 01:12:15;;;;;;;1.90;0.90;;;25.10;36.90;;;;;;5076031;28;20477;-78
2022/07/29 01:14:43;;;;;;;0.87;0.87;;;25.10;36.90;;;;;;5084068;28;20506;-78
2022/07/29 01:17:12;;;;;;;0.90;0.90;;;25.00;36.90;;;;;;5083744;28;20427;-78
2022/07/29 01:19:48;;;;;;;0.90;0.90;;;25.10;36.90;;;;;;5096262;28;20445;-77
2022/07/29 01:22:27;;;;;;;0.80;0.80;;;25.00;37.00;;;;;;5095353;28;20415;-78
2022/07/29 01:25:22;;;;;;;0.93;0.90;;;25.00;37.00;;;;;;5094647;28;20451;-77
2022/07/29 01:28:02;;;;;;;0.90;0.90;;;25.00;36.90;;;;;;5095545;28;20473;-77
2022/07/29 01:30:33;;;;;;;0.90;0.90;;;25.00;37.00;;;;;;5095709;28;20403;-78
2022/07/29 01:33:02;;;;;;;1.10;1.00;;;25.00;37.00;;;;;;5097882;28;20551;-79
2022/07/29 01:35:32;;;;;;;0.90;0.90;;;25.00;37.00;;;;;;5096970;28;20444;-76
2022/07/29 01:38:02;;;;;;;0.90;0.90;;;25.00;37.00;;;;;;5098375;28;20527;-79
2022/07/29 01:40:31;;;;;;;0.90;0.90;;;25.00;36.90;;;;;;5094238;28;20407;-78
2022/07/29 01:43:00;;;;;;;0.83;0.83;;;25.00;37.00;;;;;;5092308;28;20813;-77
2022/07/29 01:45:32;;;;;;;0.80;0.80;;;25.00;37.00;;;;;;5093590;28;20459;-77
2022/07/29 01:48:03;;;;;;;0.80;0.80;;;25.00;37.00;;;;;;5095305;28;20506;-78
2022/07/29 01:50:42;;;;;;;1.00;0.80;;;25.00;36.90;;;;;;5095277;28;20540;-77
2022/07/29 01:53:10;;;;;;;0.90;0.80;;;24.90;36.80;;;;;;5094837;28;20523;-78
2022/07/29 01:55:40;;;;;;;1.90;1.03;;;24.90;36.80;;;;;;5094012;28;20540;-77
2022/07/29 01:58:08;;;;;;;0.90;0.90;;;24.90;36.80;;;;;;5094734;28;20447;-78
2022/07/29 02:00:36;;;;;;;0.80;0.80;;;24.90;36.70;;;;;;5094669;28;20419;-78
2022/07/29 02:03:08;;;;;;;1.10;1.00;;;24.90;36.90;;;;;;5094199;28;20463;-78
2022/07/29 02:05:36;;;;;;;1.70;0.80;;;24.90;36.90;;;;;;5093610;28;20524;-77
2022/07/29 02:08:05;;;;;;;1.00;1.00;;;24.90;36.90;;;;;;5094472;28;20468;-77
2022/07/29 02:10:34;;;;;;;1.00;0.90;;;24.80;36.80;;;;;;5095566;28;20455;-77
2022/07/29 02:13:02;;;;;;;0.90;0.90;;;24.80;36.80;;;;;;5094958;28;20528;-77
2022/07/29 02:15:32;;;;;;;1.57;1.10;;;24.80;36.80;;;;;;5094834;28;20469;-77
2022/07/29 02:18:02;;;;;;;0.90;0.90;;;24.80;36.80;;;;;;5095074;28;20471;-77
2022/07/29 02:20:33;;;;;;;0.70;0.70;;;24.80;36.80;;;;;;5094412;28;20472;-77
2022/07/29 02:23:01;;;;;;;0.90;0.90;;;24.80;36.80;;;;;;5095199;28;20511;-78
2022/07/29 02:25:29;;;;;;;1.53;0.97;;;24.80;36.80;;;;;;5094018;28;20448;-78
2022/07/29 02:28:05;;;;;;;0.80;0.80;;;24.80;36.80;;;;;;5094520;28;20468;-78
2022/07/29 02:30:33;;;;;;;0.83;0.83;;;24.70;36.70;;;;;;5094615;28;20523;-78
2022/07/29 02:33:01;;;;;;;0.90;0.90;;;24.80;36.90;;;;;;5094460;28;20475;-78
2022/07/29 02:35:29;;;;;;;2.80;1.00;;;24.70;36.80;;;;;;5093659;28;20449;-78
2022/07/29 02:40:48;;;;;;;0.80;0.80;;;24.70;36.80;;;;;;5094753;28;20443;-80
2022/07/29 02:43:16;;;;;;;1.27;1.00;;;24.70;36.80;;;;;;5097797;28;20451;-78
2022/07/29 02:45:44;;;;;;;0.90;0.90;;;24.70;36.80;;;;;;5096845;28;20427;-78
2022/07/29 02:48:14;;;;;;;0.90;0.90;;;24.70;36.80;;;;;;5097111;28;20506;-78
2022/07/29 02:50:45;;;;;;;0.90;0.90;;;24.70;36.80;;;;;;5097350;28;20411;-78
2022/07/29 02:53:17;;;;;;;0.90;0.90;;;24.70;36.80;;;;;;5096493;28;20514;-78
2022/07/29 02:55:46;;;;;;;0.97;0.97;;;24.70;36.80;;;;;;5095350;28;20512;-78
2022/07/29 02:58:16;;;;;;;1.30;0.70;;;24.60;36.70;;;;;;5097020;28;20532;-78
2022/07/29 03:00:44;;;;;;;0.90;0.90;;;24.60;36.70;;;;;;5096565;28;20502;-78
2022/07/29 03:03:13;;;;;;;0.80;0.80;;;24.60;36.80;;;;;;5096491;28;20522;-77
2022/07/29 03:05:41;;;;;;;0.87;0.87;;;24.60;36.70;;;;;;5096150;28;20403;-78
2022/07/29 03:08:10;;;;;;;2.37;1.13;;;24.60;36.70;;;;;;5097759;28;20495;-78
2022/07/29 03:10:40;;;;;;;0.90;0.90;;;24.60;36.70;;;;;;5097911;28;20411;-78
2022/07/29 03:13:08;;;;;;;1.20;0.83;;;24.60;36.70;;;;;;5098384;28;20448;-78
2022/07/29 03:15:36;;;;;;;1.13;1.00;;;24.60;36.80;;;;;;5096630;28;20451;-78
2022/07/29 03:18:04;;;;;;;1.03;0.80;;;24.60;36.80;;;;;;5096573;28;20437;-78
2022/07/29 03:20:32;;;;;;;0.80;0.80;;;24.50;36.70;;;;;;5096031;28;20451;-78
2022/07/29 03:23:00;;;;;;;0.80;0.80;;;24.60;36.70;;;;;;5097554;28;20532;-78
2022/07/29 03:25:28;;;;;;;1.10;0.77;;;24.60;36.80;;;;;;5096124;28;20523;-78
2022/07/29 03:27:57;;;;;;;1.00;0.87;;;24.50;36.60;;;;;;5104060;28;20451;-78
2022/07/29 03:30:25;;;;;;;0.90;0.90;;;24.50;36.70;;;;;;5096869;28;20426;-77
2022/07/29 03:32:54;;;;;;;0.80;0.80;;;24.50;36.50;;;;;;5095141;28;20468;-77
2022/07/29 03:35:23;;;;;;;1.00;0.90;;;24.50;36.70;;;;;;5094188;28;20468;-77
2022/07/29 03:37:51;;;;;;;1.00;0.73;;;24.50;36.60;;;;;;5095979;28;20535;-77
2022/07/29 03:40:20;;;;;;;1.00;0.90;;;24.50;36.70;;;;;;5097257;28;20839;-77
2022/07/29 03:42:48;;;;;;;0.80;0.80;;;24.50;36.70;;;;;;5097657;28;20464;-77
2022/07/29 03:45:19;;;;;;;1.00;0.90;;;24.50;36.70;;;;;;5096862;28;20435;-77
2022/07/29 03:47:49;;;;;;;0.93;0.90;;;24.50;36.70;;;;;;5096169;28;20523;-78
2022/07/29 03:50:22;;;;;;;0.90;0.90;;;24.50;36.70;;;;;;5096655;28;20440;-77
2022/07/29 03:52:50;;;;;;;0.93;0.93;;;24.50;36.70;;;;;;5096900;28;20448;-78
2022/07/29 03:55:18;;;;;;;0.80;0.80;;;24.50;36.70;;;;;;5096608;28;20534;-77
2022/07/29 03:57:46;;;;;;;1.33;0.83;;;24.50;36.70;;;;;;5096662;28;20423;-78
2022/07/29 04:00:15;;;;;;;0.80;0.80;;;24.50;36.80;;;;;;5097383;28;20417;-77
2022/07/29 04:02:48;;;;;;;1.00;1.00;;;24.50;36.70;;;;;;5096267;28;20502;-78
2022/07/29 04:05:16;;;;;;;1.17;0.90;;;24.50;36.70;;;;;;5095759;28;20442;-78
2022/07/29 04:07:44;;;;;;;1.20;1.10;;;24.40;36.60;;;;;;5095922;28;20415;-78
2022/07/29 04:10:12;;;;;;;0.93;0.93;;;24.40;36.60;;;;;;5095944;28;20534;-78
2022/07/29 04:12:41;;;;;;;0.90;0.90;;;24.40;36.70;;;;;;5096302;28;20792;-78
2022/07/29 04:15:10;;;;;;;0.90;0.90;;;24.40;36.60;;;;;;5096512;28;20471;-78
2022/07/29 04:17:38;;;;;;;0.87;0.80;;;24.40;36.70;;;;;;5096370;28;20422;-78
2022/07/29 04:20:08;;;;;;;1.00;1.00;;;24.30;36.70;;;;;;5097105;28;20502;-78
2022/07/29 04:22:36;;;;;;;1.00;1.00;;;24.40;36.80;;;;;;5096420;28;20483;-78
2022/07/29 04:25:05;;;;;;;1.33;0.90;;;24.40;36.80;;;;;;5095413;28;20441;-78
2022/07/29 04:27:33;;;;;;;1.00;0.90;;;24.40;36.60;;;;;;5095873;28;20444;-77
2022/07/29 04:30:01;;;;;;;1.00;0.90;;;24.30;36.50;;;;;;5096290;28;20540;-78
2022/07/29 04:32:29;;;;;;;1.00;1.00;;;24.40;36.80;;;;;;5096377;28;20535;-78
2022/07/29 04:34:57;;;;;;;0.93;0.93;;;24.30;36.60;;;;;;5095911;28;20450;-77
2022/07/29 04:37:26;;;;;;;0.80;0.80;;;24.40;36.70;;;;;;5096085;28;20509;-78
2022/07/29 04:39:54;;;;;;;1.10;1.00;;;24.40;36.60;;;;;;5096392;28;20524;-77
2022/07/29 04:42:22;;;;;;;1.43;1.00;;;24.40;36.50;;;;;;5096450;28;20528;-78
2022/07/29 04:44:56;;;;;;;1.10;1.10;;;24.40;36.60;;;;;;5096970;28;20499;-77
2022/07/29 04:47:27;;;;;;;1.10;1.10;;;24.30;36.50;;;;;;5096568;28;20466;-78
2022/07/29 04:49:56;;;;;;;0.90;0.90;;;24.30;36.50;;;;;;5096432;28;20468;-78
2022/07/29 04:52:24;;;;;;;1.00;1.00;;;24.40;36.60;;;;;;5096863;28;20422;-78
2022/07/29 04:54:53;;;;;;;1.67;1.03;;;24.40;36.50;;;;;;5096366;28;20552;-77
2022/07/29 04:57:21;;;;;;;1.27;1.17;;;24.30;36.50;;;;;;5098743;28;20504;-78
2022/07/29 04:59:49;;;;;;;1.10;1.10;;;24.40;36.60;;;;;;5099133;28;20436;-77
2022/07/29 05:02:17;;;;;;;0.90;0.90;;;24.40;36.50;;;;;;5097633;28;20448;-78
2022/07/29 05:04:44;;;;;;;1.00;1.00;;;24.40;36.60;;;;;;5096864;28;20523;-77
2022/07/29 05:07:12;;;;;;;1.20;1.10;;;24.40;36.50;;;;;;5095568;28;20451;-77
2022/07/29 05:09:40;;;;;;;1.10;1.00;;;24.40;36.50;;;;;;5095324;28;20853;-77
2022/07/29 05:12:10;;;;;;;1.10;1.00;;;24.40;36.60;;;;;;5096369;28;20426;-77
2022/07/29 05:14:38;;;;;;;1.07;0.90;;;24.40;36.50;;;;;;5095743;28;20443;-77
2022/07/29 05:17:06;;;;;;;0.90;0.90;;;24.40;36.60;;;;;;5095448;28;20455;-77
2022/07/29 05:19:34;;;;;;;1.03;1.03;;;24.40;36.50;;;;;;5095566;28;20417;-78
2022/07/29 05:22:06;;;;;;;1.40;1.23;;;24.40;36.50;;;;;;5096419;28;20519;-77
2022/07/29 05:24:34;;;;;;;0.90;0.90;;;24.40;36.50;;;;;;5095664;28;20544;-77
2022/07/29 05:27:02;;;;;;;0.90;0.90;;;24.50;36.50;;;;;;5095121;28;20502;-77
2022/07/29 05:29:31;;;;;;;1.10;1.10;;;24.50;36.60;;;;;;5094877;28;20475;-77
2022/07/29 05:32:12;;;;;;;1.00;0.90;;;24.50;36.50;;;;;;5095442;28;20419;-77
2022/07/29 05:34:40;;;;;;;0.90;0.90;;;24.50;36.50;;;;;;5094679;28;20563;-77
2022/07/29 05:37:18;;;;;;;1.20;1.10;;;24.50;36.50;;;;;;5095457;28;20437;-77
2022/07/29 05:39:46;;;;;;;1.00;1.00;;;24.50;36.50;;;;;;5095031;28;20433;-77
2022/07/29 05:42:17;;;;;;;1.10;1.07;;;24.50;36.50;;;;;;5095659;28;20460;-76
2022/07/29 05:44:47;;;;;;;1.10;1.10;;;24.50;36.40;;;;;;5095315;28;20463;-77
2022/07/29 05:47:14;;;;;;;1.40;1.30;;;24.50;36.40;;;;;;5094870;28;20483;-77
2022/07/29 05:49:42;;;;;;;1.37;1.27;;;24.60;36.50;;;;;;5095300;28;20559;-78
2022/07/29 05:52:10;;;;;;;0.90;0.90;;;24.60;36.30;;;;;;5096976;28;20519;-77
2022/07/29 05:54:38;;;;;;;1.00;1.00;;;24.60;36.40;;;;;;5079715;28;20520;-78
2022/07/29 05:57:06;;;;;;;3.03;1.27;;;24.70;37.00;;;;;;5076357;28;20449;-78
2022/07/29 05:59:36;;;;;;;1.27;1.23;;;24.70;36.40;;;;;;5074706;28;20409;-78
2022/07/29 06:02:05;;;;;;;1.30;1.20;;;24.70;36.20;;;;;;5075832;28;21020;-77
2022/07/29 06:04:34;;;;;;;1.17;1.10;;;24.70;36.20;;;;;;5075234;28;20541;-77
2022/07/29 06:07:02;;;;;;;1.30;1.20;;;24.70;36.30;;;;;;5074606;28;20416;-77
2022/07/29 06:09:30;;;;;;;1.20;1.20;;;24.70;36.10;;;;;;5075360;28;20556;-77
2022/07/29 06:11:58;;;;;;;1.40;1.30;;;24.70;36.30;;;;;;5073604;28;20426;-77
2022/07/29 06:14:26;;;;;;;1.70;1.60;;;24.80;36.10;;;;;;5074824;28;20492;-77
2022/07/29 06:16:54;;;;;;;1.40;1.30;;;24.80;36.20;;;;;;5073908;28;20529;-77
2022/07/29 06:19:23;;;;;;;1.23;1.13;;;24.80;36.10;;;;;;5074052;28;20505;-78
2022/07/29 06:21:50;;;;;;;1.57;1.47;;;24.80;36.00;;;;;;5074607;28;20420;-77
2022/07/29 06:24:18;;;;;;;1.40;1.30;;;24.80;36.10;;;;;;5075052;28;20444;-77
2022/07/29 06:26:46;;;;;;;1.27;1.27;;;24.80;36.10;;;;;;5074673;28;20415;-77
2022/07/29 06:29:14;;;;;;;1.80;1.40;;;24.80;36.10;;;;;;5074981;28;20404;-77
2022/07/29 06:31:42;;;;;;;1.37;1.30;;;24.80;36.20;;;;;;5074520;28;20495;-78
2022/07/29 06:34:10;;;;;;;1.23;1.23;;;24.80;36.20;;;;;;5075239;28;20529;-77
2022/07/29 06:36:39;;;;;;;1.27;1.17;;;24.90;36.30;;;;;;5074215;28;20429;-78
2022/07/29 06:39:07;;;;;;;1.47;1.37;;;24.90;36.10;;;;;;5074107;28;20446;-77
2022/07/29 06:41:36;;;;;;;1.27;1.17;;;24.90;36.20;;;;;;5074482;28;20932;-77
2022/07/29 06:44:05;;;;;;;1.60;1.50;;;24.90;36.20;;;;;;5075229;28;20523;-77
2022/07/29 06:46:33;;;;;;;1.50;1.40;;;25.00;36.20;;;;;;5072942;28;20528;-77
2022/07/29 06:49:02;;;;;;;1.20;1.20;;;25.00;36.20;;;;;;5072493;28;20408;-77
2022/07/29 06:51:30;;;;;;;1.30;1.30;;;25.00;36.30;;;;;;5072217;28;20849;-77
2022/07/29 06:54:00;;;;;;;1.40;1.30;;;25.00;36.10;;;;;;5072430;28;20461;-77
2022/07/29 06:56:31;;;;;;;1.23;1.20;;;25.10;36.10;;;;;;5072333;28;20987;-77
2022/07/29 06:59:05;;;;;;;1.33;1.23;;;25.10;36.20;;;;;;5074378;28;20537;-77
2022/07/29 07:01:33;;;;;;;1.20;1.20;;;25.20;36.10;;;;;;5074137;28;20437;-77
2022/07/29 07:04:01;;;;;;;1.70;1.60;;;25.20;36.20;;;;;;5074226;28;20440;-78
2022/07/29 07:06:29;;;;;;;1.43;1.37;;;25.20;36.10;;;;;;5073166;28;20475;-77
2022/07/29 07:08:58;;;;;;;2.10;1.47;;;25.20;36.00;;;;;;5074092;28;20851;-77
2022/07/29 07:11:26;;;;;;;1.40;1.30;;;25.30;36.00;;;;;;5074080;28;20551;-78
2022/07/29 07:13:54;;;;;;;1.93;1.83;;;25.30;36.00;;;;;;5073738;28;20469;-78
2022/07/29 07:16:29;;;;;;;1.47;1.37;;;25.30;36.00;;;;;;5073669;28;20388;-77
2022/07/29 07:18:56;;;;;;;1.33;1.33;;;25.40;36.20;;;;;;5068977;28;20482;-78
2022/07/29 07:21:24;;;;;;;1.57;1.57;;;25.40;36.20;;;;;;5070854;28;20423;-77
2022/07/29 07:23:52;;;;;;;1.60;1.50;;;25.40;36.20;;;;;;5072766;28;21015;-77
2022/07/29 07:26:22;;;;;;;1.30;1.30;;;25.40;36.20;;;;;;5072492;28;20444;-77
2022/07/29 07:28:50;;;;;;;1.60;1.50;;;25.40;36.20;;;;;;5073787;28;20441;-78
2022/07/29 07:31:18;;;;;;;1.50;1.40;;;25.50;36.20;;;;;;5073951;28;20516;-78
2022/07/29 07:33:45;;;;;;;2.67;1.50;;;25.50;36.30;;;;;;5073464;28;20468;-78
2022/07/29 07:36:13;;;;;;;1.10;1.10;;;25.60;36.30;;;;;;5072730;28;20427;-78
2022/07/29 07:38:41;;;;;;;1.00;1.00;;;25.70;36.40;;;;;;5073290;28;20422;-78
2022/07/29 07:41:09;;;;;;;1.30;1.20;;;25.70;36.30;;;;;;5073302;28;20433;-78
2022/07/29 07:43:38;;;;;;;1.20;1.20;;;25.80;36.30;;;;;;5073814;28;20443;-77
2022/07/29 07:46:06;;;;;;;1.37;1.27;;;25.90;36.30;;;;;;5073132;28;20520;-77
2022/07/29 07:48:34;;;;;;;1.27;1.27;;;26.10;36.10;;;;;;5073671;28;20420;-77
2022/07/29 07:51:02;;;;;;;1.27;1.27;;;26.20;36.00;;;;;;5074707;28;20556;-78
2022/07/29 07:53:30;;;;;;;1.83;1.73;;;26.40;35.90;;;;;;5074294;28;20466;-78
2022/07/29 07:55:59;;;;;;;5.00;1.20;;;26.40;35.80;;;;;;5073605;28;20511;-77
2022/07/29 07:58:39;;;;;;;1.30;1.20;;;26.50;35.90;;;;;;5074399;28;20469;-77
2022/07/29 08:01:07;;;;;;;1.40;1.40;;;26.70;35.80;;;;;;5074742;28;20525;-77
2022/07/29 08:03:35;;;;;;;1.50;1.40;;;26.70;35.80;;;;;;5074096;28;20459;-78
2022/07/29 08:06:03;;;;;;;1.30;1.20;;;26.90;35.90;;;;;;5072685;28;20443;-78
2022/07/29 08:08:31;;;;;;;1.30;1.30;;;27.00;35.80;;;;;;5074782;28;20487;-77
2022/07/29 08:11:01;;;;;;;1.20;1.20;;;27.10;35.80;;;;;;5073761;28;20500;-77
2022/07/29 08:13:35;;;;;;;1.57;1.47;;;27.20;35.70;;;;;;5074031;28;20943;-77
2022/07/29 08:16:12;;;;;;;1.53;1.43;;;27.40;35.60;;;;;;5072961;28;20418;-77
2022/07/29 08:18:42;;;;;;;2.00;1.60;;;27.50;35.50;;;;;;5072768;28;20475;-78
2022/07/29 08:21:10;;;;;;;1.60;1.50;;;27.70;35.70;;;;;;5072890;28;20503;-77
2022/07/29 08:23:46;;;;;;;1.60;1.50;;;27.80;35.40;;;;;;5075461;28;20514;-78
2022/07/29 08:26:24;;;;;;;1.30;1.20;;;27.90;35.40;;;;;;5076978;28;20417;-78
2022/07/29 08:28:52;;;;;;;1.53;1.43;;;28.10;35.40;;;;;;5076708;28;20461;-78
2022/07/29 08:31:21;;;;;;;1.57;1.47;;;28.30;35.30;;;;;;5077164;28;20446;-78
2022/07/29 08:33:49;;;;;;;1.30;1.30;;;28.50;35.20;;;;;;5078589;28;20461;-78
2022/07/29 08:36:17;;;;;;;1.27;1.10;;;28.60;35.10;;;;;;5076412;28;20445;-77
2022/07/29 08:38:45;;;;;;;1.43;1.33;;;28.80;35.10;;;;;;5076385;28;20445;-77
2022/07/29 08:41:13;;;;;;;1.50;1.40;;;29.00;35.00;;;;;;5076447;28;20437;-78
2022/07/29 08:43:41;;;;;;;1.50;1.40;;;29.10;34.90;;;;;;5076297;28;20484;-78
2022/07/29 08:46:09;;;;;;;1.33;1.23;;;29.30;34.90;;;;;;5076493;28;20529;-78
2022/07/29 08:48:39;;;;;;;1.30;1.20;;;29.40;34.90;;;;;;5077048;28;20416;-78
2022/07/29 08:51:07;;;;;;;1.43;1.43;;;29.60;34.80;;;;;;5078044;28;20515;-78
2022/07/29 08:53:37;;;;;;;1.50;1.40;;;29.80;34.70;;;;;;5077534;28;20464;-78
2022/07/29 08:56:05;;;;;;;1.30;1.30;;;30.00;34.60;;;;;;5077169;28;20446;-77
2022/07/29 08:58:33;;;;;;;1.20;1.20;;;30.20;34.40;;;;;;5077528;28;20452;-77
2022/07/29 09:01:03;;;;;;;1.30;1.20;;;30.30;34.30;;;;;;5060965;28;20433;-78
2022/07/29 09:03:35;;;;;;;1.20;1.20;;;30.30;34.20;;;;;;5095484;28;20529;-78
2022/07/29 09:06:04;;;;;;;1.40;1.40;;;30.40;34.20;;;;;;5078963;28;20435;-77
2022/07/29 09:08:32;;;;;;;1.23;1.23;;;30.50;34.30;;;;;;5054993;28;20815;-77
2022/07/29 09:11:01;;;;;;;1.43;1.37;;;30.60;34.30;;;;;;5055903;28;20449;-77
2022/07/29 09:13:31;;;;;;;1.10;1.10;;;30.60;34.20;;;;;;5055780;28;20465;-77
2022/07/29 09:15:59;;;;;;;0.90;0.90;;;30.70;34.20;;;;;;5055940;28;20481;-77
2022/07/29 09:18:35;;;;;;;1.20;1.20;;;30.70;34.10;;;;;;5056257;28;20511;-77
2022/07/29 09:24:01;;;;;;;1.30;1.20;;;30.80;34.20;;;;;;5075959;28;20469;-78
2022/07/29 09:26:30;;;;;;;1.57;1.20;;;30.90;34.10;;;;;;5056831;28;20533;-78
2022/07/29 09:28:58;;;;;;;2.00;1.07;;;31.00;34.10;;;;;;5055682;28;20442;-76
2022/07/29 09:31:34;;;;;;;2.67;1.33;;;31.10;34.10;;;;;;5060354;28;20469;-77
2022/07/29 09:34:01;;;;;;;1.23;1.13;;;31.20;34.00;;;;;;5073444;28;20461;-77
2022/07/29 09:36:31;;;;;;;1.30;1.30;;;31.30;33.80;;;;;;5069048;28;20442;-78
2022/07/29 09:38:59;;;;;;;6.43;1.50;;;31.40;33.90;;;;;;5068412;28;20440;-78
2022/07/29 09:41:27;;;;;;;1.83;1.47;;;31.50;33.80;;;;;;5070247;28;20437;-78
2022/07/29 09:43:56;;;;;;;1.50;1.40;;;31.60;33.70;;;;;;5056020;28;20541;-78
2022/07/29 09:46:24;;;;;;;2.53;1.53;;;31.70;33.70;;;;;;5055274;28;20573;-78
2022/07/29 09:49:08;;;;;;;1.50;1.50;;;31.80;33.70;;;;;;5056433;28;20508;-78
2022/07/29 09:51:37;;;;;;;1.63;1.53;;;31.90;33.60;;;;;;5076203;28;20560;-78
2022/07/29 09:54:23;;;;;;;3.23;1.50;;;31.90;33.60;;;;;;5074311;28;20475;-78
2022/07/29 09:56:51;;;;;;;2.40;1.40;;;31.90;33.40;;;;;;5074092;28;20881;-78
2022/07/29 09:59:20;;;;;;;1.37;1.37;;;32.00;33.50;;;;;;5074947;28;20505;-78
2022/07/29 10:01:47;;;;;;;1.33;1.23;;;32.00;33.40;;;;;;5073380;28;20425;-78
2022/07/29 10:04:15;;;;;;;1.47;1.37;;;32.10;33.60;;;;;;5076157;28;20456;-78
2022/07/29 10:07:00;;;;;;;1.40;1.30;;;32.20;33.50;;;;;;5074669;28;20978;-77
2022/07/29 10:09:31;;;;;;;1.57;1.30;;;32.40;33.50;;;;;;5068450;28;20517;-78
2022/07/29 10:12:07;;;;;;;1.37;1.07;;;32.50;33.40;;;;;;5056857;28;20509;-79
2022/07/29 10:14:35;;;;;;;1.10;1.10;;;32.70;33.20;;;;;;5055975;28;20465;-78
2022/07/29 10:17:03;;;;;;;1.50;1.20;;;33.00;33.20;;;;;;5055805;28;20446;-78
2022/07/29 10:19:31;;;;;;;1.07;1.03;;;33.30;33.10;;;;;;5055947;28;20439;-78
2022/07/29 10:22:01;;;;;;;1.10;1.10;;;33.50;32.90;;;;;;5054916;28;20431;-78
2022/07/29 10:24:30;;;;;;;1.90;1.30;;;33.90;32.70;;;;;;5054855;28;20475;-78
2022/07/29 10:26:59;;;;;;;1.93;1.00;;;34.20;32.40;;;;;;5074801;28;20456;-78
2022/07/29 10:29:28;;;;;;;2.80;1.30;;;34.20;32.10;;;;;;5097137;28;20471;-78
2022/07/29 10:32:06;;;;;;;1.27;1.27;;;34.30;31.90;;;;;;5097360;28;20496;-78
2022/07/29 10:34:45;;;;;;;1.53;1.30;;;34.50;31.80;;;;;;5077904;28;20572;-79
2022/07/29 10:37:18;;;;;;;1.30;1.30;;;34.40;31.70;;;;;;5056681;28;20426;-78
2022/07/29 10:39:53;;;;;;;1.40;1.30;;;34.50;31.70;;;;;;5072913;28;20509;-78
2022/07/29 10:42:23;;;;;;;1.40;1.30;;;34.50;31.70;;;;;;5072745;28;20857;-78
2022/07/29 10:45:03;;;;;;;2.07;1.60;;;34.60;31.70;;;;;;5056329;28;20454;-78
2022/07/29 10:47:31;;;;;;;1.37;1.00;;;34.70;31.60;;;;;;5056643;28;20465;-78
2022/07/29 10:50:02;;;;;;;1.30;1.30;;;34.70;31.50;;;;;;5054408;28;20470;-78
2022/07/29 10:52:57;;;;;;;1.67;1.57;;;34.80;31.40;;;;;;5070637;28;20556;-78
2022/07/29 10:55:33;;;;;;;1.10;1.10;;;34.80;31.40;;;;;;5074372;28;20979;-78
2022/07/29 10:58:15;;;;;;;1.10;1.00;;;34.90;31.40;;;;;;5063507;28;20521;-78
2022/07/29 11:00:44;;;;;;;1.60;1.33;;;34.90;31.40;;;;;;5055690;28;20422;-78
2022/07/29 11:03:44;;;;;;;1.03;1.03;;;34.90;31.40;;;;;;5054597;28;20873;-78
2022/07/29 11:06:17;;;;;;;1.37;1.13;;;34.80;31.30;;;;;;5053506;28;20849;-77
2022/07/29 11:09:19;;;;;;;1.37;1.30;;;34.90;31.40;;;;;;5053658;28;20912;-77
2022/07/29 11:12:01;;;;;;;1.30;1.20;;;34.90;31.40;;;;;;5070441;28;20430;-77
2022/07/29 11:15:01;;;;;;;2.30;1.30;;;35.00;31.30;;;;;;5074661;28;20465;-76
2022/07/29 11:17:29;;;;;;;1.37;1.27;;;35.10;31.20;;;;;;5074682;28;20465;-77
2022/07/29 11:20:33;;;;;;;1.50;1.40;;;35.10;31.00;;;;;;5072781;28;20461;-77
2022/07/29 11:23:17;;;;;;;1.37;1.10;;;35.50;31.10;;;;;;5074262;28;20812;-77
2022/07/29 11:25:46;;;;;;;2.03;1.23;;;35.90;31.00;;;;;;5073362;28;20508;-77
2022/07/29 11:28:20;;;;;;;1.50;1.40;;;36.80;30.00;;;;;;5073329;28;20450;-78
2022/07/29 11:30:52;;;;;;;1.37;1.23;;;37.40;29.40;;;;;;5074359;28;20433;-78
2022/07/29 11:33:30;;;;;;;1.37;1.37;;;37.70;28.80;;;;;;5062945;28;20481;-78
2022/07/29 11:36:18;;;;;;;1.10;1.00;;;37.40;28.90;;;;;;5068270;28;20446;-78
2022/07/29 11:39:08;;;;;;;6.20;1.10;;;37.00;29.20;;;;;;5074749;28;20821;-77
2022/07/29 11:41:38;;;;;;;1.40;1.10;;;36.80;29.40;;;;;;5065779;28;20448;-77
2022/07/29 11:44:06;;;;;;;2.93;1.67;;;36.60;29.50;;;;;;5071620;28;20468;-79
2022/07/29 11:46:46;;;;;;;1.20;1.20;;;36.40;29.70;;;;;;5058370;28;20446;-78
2022/07/29 11:49:14;;;;;;;1.30;1.20;;;36.20;29.80;;;;;;5069389;28;20532;-79
2022/07/29 11:51:43;;;;;;;1.70;1.17;;;35.90;30.00;;;;;;5074007;28;20809;-78
2022/07/29 11:54:15;;;;;;;1.37;1.27;;;35.70;30.10;;;;;;5075137;28;20477;-76
2022/07/29 11:56:45;;;;;;;1.67;1.10;;;35.50;30.40;;;;;;5070321;28;20541;-77
2022/07/29 11:59:13;;;;;;;3.00;1.30;;;35.20;30.50;;;;;;5074476;28;20446;-77
2022/07/29 12:01:53;;;;;;;1.07;1.07;;;35.10;30.80;;;;;;5074687;28;20467;-78
2022/07/29 12:04:49;;;;;;;2.50;1.30;;;35.00;30.90;;;;;;5077957;28;20440;-78
2022/07/29 12:07:18;;;;;;;1.43;1.03;;;34.90;31.20;;;;;;5076040;28;20449;-78
2022/07/29 12:09:51;;;;;;;4.00;1.90;;;34.80;31.20;;;;;;5078057;28;20472;-78
2022/07/29 12:12:24;;;;;;;1.60;1.27;;;34.70;31.30;;;;;;5074538;28;20440;-77
2022/07/29 12:14:54;;;;;;;2.33;1.33;;;34.50;31.40;;;;;;5074194;28;20471;-77
2022/07/29 12:17:29;;;;;;;1.43;1.20;;;34.40;31.60;;;;;;5075730;28;20433;-78
2022/07/29 12:19:59;;;;;;;4.00;1.30;;;34.30;31.70;;;;;;5075476;28;20449;-78
2022/07/29 12:22:30;;;;;;;1.40;1.30;;;34.20;31.90;;;;;;5075554;28;20436;-77
2022/07/29 12:25:02;;;;;;;1.93;1.20;;;34.10;32.00;;;;;;5075883;28;20457;-77
2022/07/29 12:28:00;;;;;;;1.40;1.30;;;34.10;32.10;;;;;;5075637;28;20429;-77
2022/07/29 12:30:39;;;;;;;1.43;1.33;;;34.00;32.20;;;;;;5072837;28;20497;-77
2022/07/29 12:33:12;;;;;;;1.27;1.17;;;33.90;32.80;;;;;;5075563;28;20507;-78
2022/07/29 12:35:40;;;;;;;3.10;1.40;;;33.90;32.20;;;;;;5075391;28;20488;-79
2022/07/29 12:38:09;;;;;;;4.23;1.27;;;33.90;32.10;;;;;;5076903;28;20440;-79
2022/07/29 12:40:37;;;;;;;1.40;1.30;;;33.90;32.20;;;;;;5075059;28;20513;-77
2022/07/29 12:43:13;;;;;;;1.03;1.03;;;33.90;32.20;;;;;;5077730;28;20497;-78
2022/07/29 12:45:42;;;;;;;1.20;1.20;;;33.90;32.10;;;;;;5076465;28;20444;-79
2022/07/29 12:48:10;;;;;;;1.27;1.10;;;33.90;32.00;;;;;;5077408;28;20442;-78
2022/07/29 12:50:56;;;;;;;1.83;1.17;;;33.90;32.10;;;;;;5077255;28;20449;-78
2022/07/29 12:53:24;;;;;;;1.37;1.30;;;33.90;32.10;;;;;;5075513;28;20477;-78
2022/07/29 12:55:53;;;;;;;1.23;1.13;;;33.90;32.20;;;;;;5075504;28;20453;-78
2022/07/29 12:58:32;;;;;;;2.50;1.50;;;33.80;32.20;;;;;;5076470;28;20899;-78
2022/07/29 13:01:11;;;;;;;2.30;1.63;;;33.80;32.30;;;;;;5077742;28;20468;-79
2022/07/29 13:03:48;;;;;;;1.20;1.20;;;33.70;32.30;;;;;;5074661;28;20575;-79
2022/07/29 13:06:38;;;;;;;1.63;1.30;;;33.70;32.50;;;;;;5072472;28;20445;-79
2022/07/29 13:09:10;;;;;;;1.57;1.47;;;33.70;32.50;;;;;;5074448;28;20517;-79
2022/07/29 13:11:40;;;;;;;1.63;1.27;;;33.60;32.60;;;;;;5076362;28;20536;-79
2022/07/29 13:14:30;;;;;;;1.30;1.20;;;33.50;32.60;;;;;;5078057;28;20483;-77
2022/07/29 13:17:02;;;;;;;1.40;1.30;;;33.50;32.70;;;;;;5075135;28;20943;-77